sensor_id;sensor_type;location;lat;lon;timestamp;temperature;humidity
15556;DHT22;7879;48.660;9.116;2023-05-07T00:02:22;12.70;99.90
15556;DHT22;7879;48.660;9.116;2023-05-07T00:04:49;12.60;99.90
15556;DHT22;7879;48.660;9.116;2023-05-07T00:07:16;12.60;99.90
15556;DHT22;7879;48.660;9.116;2023-05-07T00:09:43;12.50;99.90
15556;DHT22;7879;48.660;9.116;2023-05-07T00:12:10;12.50;99.90
15556;DHT22;7879;48.660;9.116;2023-05-07T00:14:37;12.50;99.90
15556;DHT22;7879;48.660;9.116;2023-05-07T00:17:04;12.40;99.90
15556;DHT22;7879;48.660;9.116;2023-05-07T00:19:30;12.40;99.90
15556;DHT22;7879;48.660;9.116;2023-05-07T00:21:58;12.40;99.90
15556;DHT22;7879;48.660;9.116;2023-05-07T00:24:25;12.30;99.90
15556;DHT22;7879;48.660;9.116;2023-05-07T00:26:51;12.30;99.90
15556;DHT22;7879;48.660;9.116;2023-05-07T00:29:19;12.30;99.90
15556;DHT22;7879;48.660;9.116;2023-05-07T00:31:46;12.30;99.90
15556;DHT22;7879;48.660;9.116;2023-05-07T00:34:13;12.20;99.90
15556;DHT22;7879;48.660;9.116;2023-05-07T00:36:39;12.20;99.90
15556;DHT22;7879;48.660;9.116;2023-05-07T00:39:06;12.10;99.90
15556;DHT22;7879;48.660;9.116;2023-05-07T00:41:33;12.10;99.90
15556;DHT22;7879;48.660;9.116;2023-05-07T00:44:00;12.10;99.90
15556;DHT22;7879;48.660;9.116;2023-05-07T00:46:30;12.10;99.90
15556;DHT22;7879;48.660;9.116;2023-05-07T00:48:58;12.10;99.90
15556;DHT22;7879;48.660;9.116;2023-05-07T00:51:26;12.10;99.90
15556;DHT22;7879;48.660;9.116;2023-05-07T00:53:54;12.10;99.90
15556;DHT22;7879;48.660;9.116;2023-05-07T00:56:21;12.10;99.90
15556;DHT22;7879;48.660;9.116;2023-05-07T00:58:49;12.10;99.90
15556;DHT22;7879;48.660;9.116;2023-05-07T01:01:16;12.10;99.90
15556;DHT22;7879;48.660;9.116;2023-05-07T01:03:43;12.00;99.90
15556;DHT22;7879;48.660;9.116;2023-05-07T01:06:11;12.00;99.90
15556;DHT22;7879;48.660;9.116;2023-05-07T01:08:41;12.00;99.90
15556;DHT22;7879;48.660;9.116;2023-05-07T01:11:08;12.00;99.90
15556;DHT22;7879;48.660;9.116;2023-05-07T01:13:36;11.90;99.90
15556;DHT22;7879;48.660;9.116;2023-05-07T01:16:04;12.00;99.90
15556;DHT22;7879;48.660;9.116;2023-05-07T01:18:31;11.90;99.90
15556;DHT22;7879;48.660;9.116;2023-05-07T01:20:58;11.90;99.90
15556;DHT22;7879;48.660;9.116;2023-05-07T01:23:27;11.90;99.90
15556;DHT22;7879;48.660;9.116;2023-05-07T01:25:55;11.80;99.90
15556;DHT22;7879;48.660;9.116;2023-05-07T01:28:22;11.90;99.90
15556;DHT22;7879;48.660;9.116;2023-05-07T01:30:58;11.80;99.90
15556;DHT22;7879;48.660;9.116;2023-05-07T01:33:27;11.80;99.90
15556;DHT22;7879;48.660;9.116;2023-05-07T01:35:56;11.70;99.90
15556;DHT22;7879;48.660;9.116;2023-05-07T01:38:23;11.70;99.90
15556;DHT22;7879;48.660;9.116;2023-05-07T01:40:50;11.80;99.90
15556;DHT22;7879;48.660;9.116;2023-05-07T01:43:17;11.70;99.90
15556;DHT22;7879;48.660;9.116;2023-05-07T01:45:44;11.70;99.90
15556;DHT22;7879;48.660;9.116;2023-05-07T01:48:12;11.70;99.90
15556;DHT22;7879;48.660;9.116;2023-05-07T01:50:41;11.80;99.90
15556;DHT22;7879;48.660;9.116;2023-05-07T01:53:08;11.70;99.90
15556;DHT22;7879;48.660;9.116;2023-05-07T01:55:35;11.60;99.90
15556;DHT22;7879;48.660;9.116;2023-05-07T01:58:04;11.50;99.90
15556;DHT22;7879;48.660;9.116;2023-05-07T02:00:31;11.70;99.90
15556;DHT22;7879;48.660;9.116;2023-05-07T02:02:58;11.50;99.90
15556;DHT22;7879;48.660;9.116;2023-05-07T02:05:25;11.50;99.90
15556;DHT22;7879;48.660;9.116;2023-05-07T02:07:52;11.60;99.90
15556;DHT22;7879;48.660;9.116;2023-05-07T02:10:19;11.50;99.90
15556;DHT22;7879;48.660;9.116;2023-05-07T02:12:46;11.40;99.90
15556;DHT22;7879;48.660;9.116;2023-05-07T02:15:13;11.40;99.90
15556;DHT22;7879;48.660;9.116;2023-05-07T02:18:01;11.30;99.90
15556;DHT22;7879;48.660;9.116;2023-05-07T02:20:29;11.40;99.90
15556;DHT22;7879;48.660;9.116;2023-05-07T02:22:56;11.40;99.90
15556;DHT22;7879;48.660;9.116;2023-05-07T02:25:23;11.30;99.90
15556;DHT22;7879;48.660;9.116;2023-05-07T02:27:50;11.30;99.90
15556;DHT22;7879;48.660;9.116;2023-05-07T02:30:17;11.20;99.90
15556;DHT22;7879;48.660;9.116;2023-05-07T02:32:44;11.10;99.90
15556;DHT22;7879;48.660;9.116;2023-05-07T02:35:11;11.20;99.90
15556;DHT22;7879;48.660;9.116;2023-05-07T02:37:38;11.10;99.90
15556;DHT22;7879;48.660;9.116;2023-05-07T02:40:05;11.20;99.90
15556;DHT22;7879;48.660;9.116;2023-05-07T02:42:32;11.20;99.90
15556;DHT22;7879;48.660;9.116;2023-05-07T02:44:59;11.10;99.90
15556;DHT22;7879;48.660;9.116;2023-05-07T02:47:25;11.00;99.90
15556;DHT22;7879;48.660;9.116;2023-05-07T02:49:55;11.00;99.90
15556;DHT22;7879;48.660;9.116;2023-05-07T02:52:22;10.90;99.90
15556;DHT22;7879;48.660;9.116;2023-05-07T02:54:49;10.90;99.90
15556;DHT22;7879;48.660;9.116;2023-05-07T02:57:16;10.90;99.90
15556;DHT22;7879;48.660;9.116;2023-05-07T02:59:43;10.90;99.90
15556;DHT22;7879;48.660;9.116;2023-05-07T03:02:10;10.80;99.90
15556;DHT22;7879;48.660;9.116;2023-05-07T03:04:37;10.90;99.90
15556;DHT22;7879;48.660;9.116;2023-05-07T03:07:04;10.90;99.90
15556;DHT22;7879;48.660;9.116;2023-05-07T03:09:31;10.90;99.90
15556;DHT22;7879;48.660;9.116;2023-05-07T03:11:58;10.80;99.90
15556;DHT22;7879;48.660;9.116;2023-05-07T03:14:25;10.80;99.90
15556;DHT22;7879;48.660;9.116;2023-05-07T03:16:52;10.70;99.90
15556;DHT22;7879;48.660;9.116;2023-05-07T03:19:19;10.70;99.90
15556;DHT22;7879;48.660;9.116;2023-05-07T03:21:45;10.70;99.90
15556;DHT22;7879;48.660;9.116;2023-05-07T03:24:12;10.70;99.90
15556;DHT22;7879;48.660;9.116;2023-05-07T03:26:39;10.60;99.90
15556;DHT22;7879;48.660;9.116;2023-05-07T03:29:06;10.60;99.90
15556;DHT22;7879;48.660;9.116;2023-05-07T03:31:32;10.50;99.90
15556;DHT22;7879;48.660;9.116;2023-05-07T03:33:59;10.60;99.90
15556;DHT22;7879;48.660;9.116;2023-05-07T03:36:26;10.60;99.90
15556;DHT22;7879;48.660;9.116;2023-05-07T03:38:53;10.60;99.90
15556;DHT22;7879;48.660;9.116;2023-05-07T03:41:20;10.50;99.90
15556;DHT22;7879;48.660;9.116;2023-05-07T03:43:47;10.50;99.90
15556;DHT22;7879;48.660;9.116;2023-05-07T03:46:14;10.50;99.90
15556;DHT22;7879;48.660;9.116;2023-05-07T03:48:41;10.40;99.90
15556;DHT22;7879;48.660;9.116;2023-05-07T03:51:08;10.40;99.90
15556;DHT22;7879;48.660;9.116;2023-05-07T03:53:35;10.40;99.90
15556;DHT22;7879;48.660;9.116;2023-05-07T03:56:01;10.30;99.90
15556;DHT22;7879;48.660;9.116;2023-05-07T03:58:28;10.30;99.90
15556;DHT22;7879;48.660;9.116;2023-05-07T04:00:55;10.30;99.90
15556;DHT22;7879;48.660;9.116;2023-05-07T04:03:22;10.30;99.90
15556;DHT22;7879;48.660;9.116;2023-05-07T04:05:49;10.30;99.90
15556;DHT22;7879;48.660;9.116;2023-05-07T04:08:16;10.20;99.90
15556;DHT22;7879;48.660;9.116;2023-05-07T04:10:42;10.10;99.90
15556;DHT22;7879;48.660;9.116;2023-05-07T04:13:09;10.10;99.90
15556;DHT22;7879;48.660;9.116;2023-05-07T04:15:36;10.10;99.90
15556;DHT22;7879;48.660;9.116;2023-05-07T04:18:03;10.10;99.90
15556;DHT22;7879;48.660;9.116;2023-05-07T04:20:30;10.10;99.90
15556;DHT22;7879;48.660;9.116;2023-05-07T04:22:57;10.10;99.90
15556;DHT22;7879;48.660;9.116;2023-05-07T04:25:23;10.10;99.90
15556;DHT22;7879;48.660;9.116;2023-05-07T04:27:52;10.20;99.90
15556;DHT22;7879;48.660;9.116;2023-05-07T04:30:22;10.20;99.90
15556;DHT22;7879;48.660;9.116;2023-05-07T04:32:48;10.00;99.90
15556;DHT22;7879;48.660;9.116;2023-05-07T04:35:15;10.20;99.90
15556;DHT22;7879;48.660;9.116;2023-05-07T04:37:42;10.10;99.90
15556;DHT22;7879;48.660;9.116;2023-05-07T04:40:09;10.20;99.90
15556;DHT22;7879;48.660;9.116;2023-05-07T04:42:37;10.10;99.90
15556;DHT22;7879;48.660;9.116;2023-05-07T04:45:04;10.10;99.90
15556;DHT22;7879;48.660;9.116;2023-05-07T04:47:31;10.00;99.90
15556;DHT22;7879;48.660;9.116;2023-05-07T04:49:58;10.00;99.90
15556;DHT22;7879;48.660;9.116;2023-05-07T04:52:25;10.00;99.90
15556;DHT22;7879;48.660;9.116;2023-05-07T04:54:53;10.00;99.90
15556;DHT22;7879;48.660;9.116;2023-05-07T04:57:19;10.00;99.90
15556;DHT22;7879;48.660;9.116;2023-05-07T04:59:46;10.00;99.90
15556;DHT22;7879;48.660;9.116;2023-05-07T05:02:15;9.90;99.90
15556;DHT22;7879;48.660;9.116;2023-05-07T05:04:45;9.90;99.90
15556;DHT22;7879;48.660;9.116;2023-05-07T05:07:12;10.00;99.90
15556;DHT22;7879;48.660;9.116;2023-05-07T05:09:38;10.00;99.90
15556;DHT22;7879;48.660;9.116;2023-05-07T05:12:05;10.00;99.90
15556;DHT22;7879;48.660;9.116;2023-05-07T05:14:33;10.10;99.90
15556;DHT22;7879;48.660;9.116;2023-05-07T05:17:00;10.20;99.90
15556;DHT22;7879;48.660;9.116;2023-05-07T05:19:27;10.20;99.90
15556;DHT22;7879;48.660;9.116;2023-05-07T05:21:53;10.30;99.90
15556;DHT22;7879;48.660;9.116;2023-05-07T05:24:20;10.30;99.90
15556;DHT22;7879;48.660;9.116;2023-05-07T05:26:47;10.40;99.90
15556;DHT22;7879;48.660;9.116;2023-05-07T05:29:14;10.40;99.90
15556;DHT22;7879;48.660;9.116;2023-05-07T05:31:40;10.40;99.90
15556;DHT22;7879;48.660;9.116;2023-05-07T05:34:08;10.60;99.90
15556;DHT22;7879;48.660;9.116;2023-05-07T05:36:35;10.60;99.90
15556;DHT22;7879;48.660;9.116;2023-05-07T05:39:02;10.70;99.90
15556;DHT22;7879;48.660;9.116;2023-05-07T05:41:29;10.80;99.90
15556;DHT22;7879;48.660;9.116;2023-05-07T05:43:56;10.90;99.90
15556;DHT22;7879;48.660;9.116;2023-05-07T05:46:22;11.10;99.90
15556;DHT22;7879;48.660;9.116;2023-05-07T05:48:49;11.10;99.90
15556;DHT22;7879;48.660;9.116;2023-05-07T05:51:16;11.20;99.90
15556;DHT22;7879;48.660;9.116;2023-05-07T05:53:43;11.10;99.90
15556;DHT22;7879;48.660;9.116;2023-05-07T05:56:09;11.30;99.90
15556;DHT22;7879;48.660;9.116;2023-05-07T05:58:36;11.40;99.90
15556;DHT22;7879;48.660;9.116;2023-05-07T06:01:03;11.40;99.90
15556;DHT22;7879;48.660;9.116;2023-05-07T06:03:31;11.60;99.90
15556;DHT22;7879;48.660;9.116;2023-05-07T06:06:01;11.70;99.90
15556;DHT22;7879;48.660;9.116;2023-05-07T06:08:31;11.80;99.90
15556;DHT22;7879;48.660;9.116;2023-05-07T06:10:58;11.80;99.90
15556;DHT22;7879;48.660;9.116;2023-05-07T06:13:25;11.80;99.90
15556;DHT22;7879;48.660;9.116;2023-05-07T06:15:52;11.90;99.90
15556;DHT22;7879;48.660;9.116;2023-05-07T06:18:19;11.90;99.90
15556;DHT22;7879;48.660;9.116;2023-05-07T06:20:45;12.10;99.90
15556;DHT22;7879;48.660;9.116;2023-05-07T06:23:13;12.00;99.90
15556;DHT22;7879;48.660;9.116;2023-05-07T06:25:49;12.20;99.90
15556;DHT22;7879;48.660;9.116;2023-05-07T06:28:17;12.30;99.90
15556;DHT22;7879;48.660;9.116;2023-05-07T06:30:43;12.40;99.90
15556;DHT22;7879;48.660;9.116;2023-05-07T06:33:10;12.60;99.90
15556;DHT22;7879;48.660;9.116;2023-05-07T06:35:37;12.80;99.90
15556;DHT22;7879;48.660;9.116;2023-05-07T06:38:04;13.00;99.90
15556;DHT22;7879;48.660;9.116;2023-05-07T06:40:31;13.00;99.90
15556;DHT22;7879;48.660;9.116;2023-05-07T06:42:58;13.00;99.90
15556;DHT22;7879;48.660;9.116;2023-05-07T06:45:25;13.20;99.90
15556;DHT22;7879;48.660;9.116;2023-05-07T06:47:51;13.20;99.90
15556;DHT22;7879;48.660;9.116;2023-05-07T06:50:18;13.30;99.90
15556;DHT22;7879;48.660;9.116;2023-05-07T06:52:45;13.40;99.90
15556;DHT22;7879;48.660;9.116;2023-05-07T06:55:12;13.60;99.90
15556;DHT22;7879;48.660;9.116;2023-05-07T06:57:39;13.70;99.90
15556;DHT22;7879;48.660;9.116;2023-05-07T07:00:06;13.80;99.90
15556;DHT22;7879;48.660;9.116;2023-05-07T07:02:37;13.90;99.90
15556;DHT22;7879;48.660;9.116;2023-05-07T07:05:04;14.00;99.90
15556;DHT22;7879;48.660;9.116;2023-05-07T07:07:31;14.00;99.90
15556;DHT22;7879;48.660;9.116;2023-05-07T07:09:58;14.10;99.90
15556;DHT22;7879;48.660;9.116;2023-05-07T07:12:25;14.20;99.90
15556;DHT22;7879;48.660;9.116;2023-05-07T07:14:52;14.30;99.90
15556;DHT22;7879;48.660;9.116;2023-05-07T07:17:20;14.40;99.90
15556;DHT22;7879;48.660;9.116;2023-05-07T07:19:47;14.60;99.90
15556;DHT22;7879;48.660;9.116;2023-05-07T07:22:14;14.60;99.90
15556;DHT22;7879;48.660;9.116;2023-05-07T07:24:41;14.70;99.90
15556;DHT22;7879;48.660;9.116;2023-05-07T07:27:08;14.80;99.90
15556;DHT22;7879;48.660;9.116;2023-05-07T07:29:34;15.10;99.90
15556;DHT22;7879;48.660;9.116;2023-05-07T07:32:01;15.10;99.90
15556;DHT22;7879;48.660;9.116;2023-05-07T07:34:28;15.10;99.90
15556;DHT22;7879;48.660;9.116;2023-05-07T07:36:55;15.20;99.90
15556;DHT22;7879;48.660;9.116;2023-05-07T07:39:22;15.20;99.90
15556;DHT22;7879;48.660;9.116;2023-05-07T07:41:49;15.30;99.90
15556;DHT22;7879;48.660;9.116;2023-05-07T07:44:16;15.50;99.90
15556;DHT22;7879;48.660;9.116;2023-05-07T07:46:43;15.60;99.90
15556;DHT22;7879;48.660;9.116;2023-05-07T07:49:10;15.60;99.90
15556;DHT22;7879;48.660;9.116;2023-05-07T07:51:37;15.70;99.90
15556;DHT22;7879;48.660;9.116;2023-05-07T07:54:04;15.90;99.90
15556;DHT22;7879;48.660;9.116;2023-05-07T07:56:32;15.90;99.90
15556;DHT22;7879;48.660;9.116;2023-05-07T07:59:02;16.00;99.90
15556;DHT22;7879;48.660;9.116;2023-05-07T08:01:30;16.00;99.90
15556;DHT22;7879;48.660;9.116;2023-05-07T08:03:57;16.10;99.90
15556;DHT22;7879;48.660;9.116;2023-05-07T08:06:27;16.20;99.90
15556;DHT22;7879;48.660;9.116;2023-05-07T08:08:54;16.30;99.90
15556;DHT22;7879;48.660;9.116;2023-05-07T08:11:20;16.40;99.90
15556;DHT22;7879;48.660;9.116;2023-05-07T08:13:47;16.50;99.90
15556;DHT22;7879;48.660;9.116;2023-05-07T08:16:14;16.60;99.90
15556;DHT22;7879;48.660;9.116;2023-05-07T08:18:41;16.60;99.90
15556;DHT22;7879;48.660;9.116;2023-05-07T08:21:08;16.70;99.90
15556;DHT22;7879;48.660;9.116;2023-05-07T08:23:35;16.70;99.90
15556;DHT22;7879;48.660;9.116;2023-05-07T08:26:02;16.90;99.90
15556;DHT22;7879;48.660;9.116;2023-05-07T08:28:29;16.90;99.90
15556;DHT22;7879;48.660;9.116;2023-05-07T08:30:56;17.00;99.90
15556;DHT22;7879;48.660;9.116;2023-05-07T08:33:23;17.10;99.90
15556;DHT22;7879;48.660;9.116;2023-05-07T08:35:50;17.20;99.90
15556;DHT22;7879;48.660;9.116;2023-05-07T08:38:17;17.20;99.90
15556;DHT22;7879;48.660;9.116;2023-05-07T08:40:44;17.20;99.90
15556;DHT22;7879;48.660;9.116;2023-05-07T08:43:14;17.30;99.90
15556;DHT22;7879;48.660;9.116;2023-05-07T08:45:41;17.50;99.90
15556;DHT22;7879;48.660;9.116;2023-05-07T08:48:17;17.70;99.90
15556;DHT22;7879;48.660;9.116;2023-05-07T08:50:44;17.70;99.90
15556;DHT22;7879;48.660;9.116;2023-05-07T08:53:12;17.80;99.90
15556;DHT22;7879;48.660;9.116;2023-05-07T08:55:39;17.80;99.90
15556;DHT22;7879;48.660;9.116;2023-05-07T08:58:06;18.10;99.90
15556;DHT22;7879;48.660;9.116;2023-05-07T09:00:33;18.20;99.90
15556;DHT22;7879;48.660;9.116;2023-05-07T09:03:01;18.30;99.90
15556;DHT22;7879;48.660;9.116;2023-05-07T09:05:28;18.60;99.90
15556;DHT22;7879;48.660;9.116;2023-05-07T09:07:55;18.70;99.90
15556;DHT22;7879;48.660;9.116;2023-05-07T09:10:24;18.80;99.90
15556;DHT22;7879;48.660;9.116;2023-05-07T09:12:52;18.90;99.90
15556;DHT22;7879;48.660;9.116;2023-05-07T09:15:19;19.10;99.90
15556;DHT22;7879;48.660;9.116;2023-05-07T09:17:45;19.30;99.90
15556;DHT22;7879;48.660;9.116;2023-05-07T09:20:12;19.50;99.90
15556;DHT22;7879;48.660;9.116;2023-05-07T09:22:39;19.80;99.90
15556;DHT22;7879;48.660;9.116;2023-05-07T09:25:07;20.10;99.90
15556;DHT22;7879;48.660;9.116;2023-05-07T09:27:35;20.30;99.90
15556;DHT22;7879;48.660;9.116;2023-05-07T09:30:06;20.50;99.90
15556;DHT22;7879;48.660;9.116;2023-05-07T09:32:36;20.60;99.90
15556;DHT22;7879;48.660;9.116;2023-05-07T09:35:18;20.80;99.90
15556;DHT22;7879;48.660;9.116;2023-05-07T09:37:47;21.00;99.90
15556;DHT22;7879;48.660;9.116;2023-05-07T09:40:25;21.30;99.90
15556;DHT22;7879;48.660;9.116;2023-05-07T09:42:53;21.30;99.90
15556;DHT22;7879;48.660;9.116;2023-05-07T09:45:26;21.30;99.90
15556;DHT22;7879;48.660;9.116;2023-05-07T09:47:56;21.40;99.90
15556;DHT22;7879;48.660;9.116;2023-05-07T09:50:35;21.60;99.90
15556;DHT22;7879;48.660;9.116;2023-05-07T09:53:03;21.80;99.90
15556;DHT22;7879;48.660;9.116;2023-05-07T09:55:30;21.90;99.90
15556;DHT22;7879;48.660;9.116;2023-05-07T09:57:58;21.80;99.90
15556;DHT22;7879;48.660;9.116;2023-05-07T10:00:27;21.90;99.90
15556;DHT22;7879;48.660;9.116;2023-05-07T10:02:56;22.10;99.90
15556;DHT22;7879;48.660;9.116;2023-05-07T10:05:24;22.20;99.90
15556;DHT22;7879;48.660;9.116;2023-05-07T10:07:52;22.30;99.90
15556;DHT22;7879;48.660;9.116;2023-05-07T10:10:19;22.30;99.90
15556;DHT22;7879;48.660;9.116;2023-05-07T10:12:47;22.50;99.90
15556;DHT22;7879;48.660;9.116;2023-05-07T10:15:14;22.60;99.90
15556;DHT22;7879;48.660;9.116;2023-05-07T10:17:41;22.70;99.90
15556;DHT22;7879;48.660;9.116;2023-05-07T10:20:08;22.90;99.90
15556;DHT22;7879;48.660;9.116;2023-05-07T10:22:41;22.90;99.90
15556;DHT22;7879;48.660;9.116;2023-05-07T10:25:32;23.00;99.90
15556;DHT22;7879;48.660;9.116;2023-05-07T10:28:06;23.00;99.90
15556;DHT22;7879;48.660;9.116;2023-05-07T10:33:05;23.20;99.90
15556;DHT22;7879;48.660;9.116;2023-05-07T10:35:44;23.20;99.90
15556;DHT22;7879;48.660;9.116;2023-05-07T10:38:11;23.40;99.90
15556;DHT22;7879;48.660;9.116;2023-05-07T10:40:38;23.70;99.90
15556;DHT22;7879;48.660;9.116;2023-05-07T10:43:06;23.80;99.90
15556;DHT22;7879;48.660;9.116;2023-05-07T10:45:36;23.80;99.90
15556;DHT22;7879;48.660;9.116;2023-05-07T10:48:13;24.00;99.90
15556;DHT22;7879;48.660;9.116;2023-05-07T10:50:44;24.00;99.90
15556;DHT22;7879;48.660;9.116;2023-05-07T10:55:50;24.00;99.90
15556;DHT22;7879;48.660;9.116;2023-05-07T10:58:29;24.20;99.70
15556;DHT22;7879;48.660;9.116;2023-05-07T11:01:00;24.20;99.60
15556;DHT22;7879;48.660;9.116;2023-05-07T11:03:33;24.20;99.20
15556;DHT22;7879;48.660;9.116;2023-05-07T11:06:23;24.30;99.00
15556;DHT22;7879;48.660;9.116;2023-05-07T11:08:56;24.50;99.90
15556;DHT22;7879;48.660;9.116;2023-05-07T11:17:10;24.50;97.30
15556;DHT22;7879;48.660;9.116;2023-05-07T11:19:54;24.20;97.80
15556;DHT22;7879;48.660;9.116;2023-05-07T11:24:59;24.10;98.80
15556;DHT22;7879;48.660;9.116;2023-05-07T11:27:29;24.40;98.30
15556;DHT22;7879;48.660;9.116;2023-05-07T11:29:56;24.40;97.90
15556;DHT22;7879;48.660;9.116;2023-05-07T11:32:24;24.00;98.00
15556;DHT22;7879;48.660;9.116;2023-05-07T11:34:54;23.70;98.00
15556;DHT22;7879;48.660;9.116;2023-05-07T11:37:23;23.70;98.50
15556;DHT22;7879;48.660;9.116;2023-05-07T11:39:51;23.70;99.00
15556;DHT22;7879;48.660;9.116;2023-05-07T11:42:30;23.60;98.60
15556;DHT22;7879;48.660;9.116;2023-05-07T11:44:57;23.50;98.00
15556;DHT22;7879;48.660;9.116;2023-05-07T11:47:24;23.40;98.30
15556;DHT22;7879;48.660;9.116;2023-05-07T11:49:53;23.30;98.00
15556;DHT22;7879;48.660;9.116;2023-05-07T11:52:21;23.30;98.00
15556;DHT22;7879;48.660;9.116;2023-05-07T11:54:52;23.20;97.80
15556;DHT22;7879;48.660;9.116;2023-05-07T11:57:19;23.20;99.20
15556;DHT22;7879;48.660;9.116;2023-05-07T11:59:46;23.20;99.20
15556;DHT22;7879;48.660;9.116;2023-05-07T12:02:17;23.20;99.00
15556;DHT22;7879;48.660;9.116;2023-05-07T12:04:44;23.10;99.30
15556;DHT22;7879;48.660;9.116;2023-05-07T12:07:12;23.10;99.00
15556;DHT22;7879;48.660;9.116;2023-05-07T12:09:44;23.00;98.90
15556;DHT22;7879;48.660;9.116;2023-05-07T12:12:11;22.90;99.20
15556;DHT22;7879;48.660;9.116;2023-05-07T12:14:39;22.80;98.80
15556;DHT22;7879;48.660;9.116;2023-05-07T12:17:11;22.70;98.70
15556;DHT22;7879;48.660;9.116;2023-05-07T12:19:47;22.60;98.60
15556;DHT22;7879;48.660;9.116;2023-05-07T12:22:15;22.50;98.40
15556;DHT22;7879;48.660;9.116;2023-05-07T12:24:46;22.10;99.90
15556;DHT22;7879;48.660;9.116;2023-05-07T12:27:15;21.90;99.90
15556;DHT22;7879;48.660;9.116;2023-05-07T12:29:52;21.20;99.90
15556;DHT22;7879;48.660;9.116;2023-05-07T12:32:22;20.20;99.90
15556;DHT22;7879;48.660;9.116;2023-05-07T12:34:53;19.10;99.90
15556;DHT22;7879;48.660;9.116;2023-05-07T12:37:56;18.10;99.90
15556;DHT22;7879;48.660;9.116;2023-05-07T12:41:06;17.80;99.90
15556;DHT22;7879;48.660;9.116;2023-05-07T12:43:44;17.60;99.90
15556;DHT22;7879;48.660;9.116;2023-05-07T12:46:16;17.60;99.90
15556;DHT22;7879;48.660;9.116;2023-05-07T12:48:49;17.60;99.90
15556;DHT22;7879;48.660;9.116;2023-05-07T12:51:22;17.70;99.90
15556;DHT22;7879;48.660;9.116;2023-05-07T12:53:49;17.70;99.90
15556;DHT22;7879;48.660;9.116;2023-05-07T12:56:16;17.80;99.90
15556;DHT22;7879;48.660;9.116;2023-05-07T12:58:48;17.50;99.90
15556;DHT22;7879;48.660;9.116;2023-05-07T13:01:15;17.70;99.90
15556;DHT22;7879;48.660;9.116;2023-05-07T13:03:48;17.80;99.90
15556;DHT22;7879;48.660;9.116;2023-05-07T13:06:17;17.90;99.90
15556;DHT22;7879;48.660;9.116;2023-05-07T13:08:43;17.90;99.90
15556;DHT22;7879;48.660;9.116;2023-05-07T13:11:11;18.00;99.90
15556;DHT22;7879;48.660;9.116;2023-05-07T13:13:39;18.00;99.90
15556;DHT22;7879;48.660;9.116;2023-05-07T13:16:09;18.10;99.90
15556;DHT22;7879;48.660;9.116;2023-05-07T13:18:38;18.00;99.90
15556;DHT22;7879;48.660;9.116;2023-05-07T13:21:05;17.90;99.90
15556;DHT22;7879;48.660;9.116;2023-05-07T13:23:33;17.80;99.90
15556;DHT22;7879;48.660;9.116;2023-05-07T13:26:00;17.70;99.90
15556;DHT22;7879;48.660;9.116;2023-05-07T13:28:37;17.70;99.90
15556;DHT22;7879;48.660;9.116;2023-05-07T13:31:04;17.70;99.90
15556;DHT22;7879;48.660;9.116;2023-05-07T13:33:30;17.80;99.90
15556;DHT22;7879;48.660;9.116;2023-05-07T13:35:57;17.90;99.90
15556;DHT22;7879;48.660;9.116;2023-05-07T13:38:24;17.80;99.90
15556;DHT22;7879;48.660;9.116;2023-05-07T13:40:51;17.40;99.90
15556;DHT22;7879;48.660;9.116;2023-05-07T13:43:18;17.10;99.90
15556;DHT22;7879;48.660;9.116;2023-05-07T13:45:45;16.90;99.90
15556;DHT22;7879;48.660;9.116;2023-05-07T13:48:12;16.70;99.90
15556;DHT22;7879;48.660;9.116;2023-05-07T13:50:39;16.80;99.90
15556;DHT22;7879;48.660;9.116;2023-05-07T13:53:07;16.80;99.90
15556;DHT22;7879;48.660;9.116;2023-05-07T13:55:34;16.80;99.90
15556;DHT22;7879;48.660;9.116;2023-05-07T13:58:02;16.90;99.90
15556;DHT22;7879;48.660;9.116;2023-05-07T14:00:32;16.80;99.90
15556;DHT22;7879;48.660;9.116;2023-05-07T14:02:59;17.00;99.90
15556;DHT22;7879;48.660;9.116;2023-05-07T14:05:26;17.00;99.90
15556;DHT22;7879;48.660;9.116;2023-05-07T14:07:56;16.90;99.90
15556;DHT22;7879;48.660;9.116;2023-05-07T14:10:24;16.80;99.90
15556;DHT22;7879;48.660;9.116;2023-05-07T14:12:51;16.80;99.90
15556;DHT22;7879;48.660;9.116;2023-05-07T14:15:21;16.90;99.90
15556;DHT22;7879;48.660;9.116;2023-05-07T14:17:48;16.60;99.90
15556;DHT22;7879;48.660;9.116;2023-05-07T14:20:15;16.70;99.90
15556;DHT22;7879;48.660;9.116;2023-05-07T14:22:41;16.70;99.90
15556;DHT22;7879;48.660;9.116;2023-05-07T14:25:08;16.80;99.90
15556;DHT22;7879;48.660;9.116;2023-05-07T14:27:36;16.80;99.90
15556;DHT22;7879;48.660;9.116;2023-05-07T14:30:03;16.80;99.90
15556;DHT22;7879;48.660;9.116;2023-05-07T14:32:30;16.80;99.90
15556;DHT22;7879;48.660;9.116;2023-05-07T14:34:57;16.70;99.90
15556;DHT22;7879;48.660;9.116;2023-05-07T14:37:24;16.80;99.90
15556;DHT22;7879;48.660;9.116;2023-05-07T14:39:51;16.80;99.90
15556;DHT22;7879;48.660;9.116;2023-05-07T14:42:18;16.80;99.90
15556;DHT22;7879;48.660;9.116;2023-05-07T14:44:45;16.80;99.90
15556;DHT22;7879;48.660;9.116;2023-05-07T14:47:13;17.00;99.90
15556;DHT22;7879;48.660;9.116;2023-05-07T14:49:39;16.80;99.90
15556;DHT22;7879;48.660;9.116;2023-05-07T14:52:07;16.70;99.90
15556;DHT22;7879;48.660;9.116;2023-05-07T14:54:37;16.80;99.90
15556;DHT22;7879;48.660;9.116;2023-05-07T14:57:06;16.80;99.90
15556;DHT22;7879;48.660;9.116;2023-05-07T14:59:33;16.90;99.90
15556;DHT22;7879;48.660;9.116;2023-05-07T15:02:00;16.80;99.90
15556;DHT22;7879;48.660;9.116;2023-05-07T15:04:32;16.80;99.90
15556;DHT22;7879;48.660;9.116;2023-05-07T15:06:59;16.90;99.90
15556;DHT22;7879;48.660;9.116;2023-05-07T15:09:26;16.90;99.90
15556;DHT22;7879;48.660;9.116;2023-05-07T15:11:54;16.80;99.90
15556;DHT22;7879;48.660;9.116;2023-05-07T15:14:20;16.90;99.90
15556;DHT22;7879;48.660;9.116;2023-05-07T15:16:48;16.80;99.90
15556;DHT22;7879;48.660;9.116;2023-05-07T15:19:16;16.80;99.90
15556;DHT22;7879;48.660;9.116;2023-05-07T15:21:43;16.80;99.90
15556;DHT22;7879;48.660;9.116;2023-05-07T15:24:10;16.80;99.90
15556;DHT22;7879;48.660;9.116;2023-05-07T15:26:37;16.80;99.90
15556;DHT22;7879;48.660;9.116;2023-05-07T15:29:04;16.80;99.90
15556;DHT22;7879;48.660;9.116;2023-05-07T15:31:37;16.90;99.90
15556;DHT22;7879;48.660;9.116;2023-05-07T15:34:06;16.90;99.90
15556;DHT22;7879;48.660;9.116;2023-05-07T15:36:34;16.90;99.90
15556;DHT22;7879;48.660;9.116;2023-05-07T15:39:02;16.80;99.90
15556;DHT22;7879;48.660;9.116;2023-05-07T15:41:30;16.70;99.90
15556;DHT22;7879;48.660;9.116;2023-05-07T15:43:57;16.80;99.90
15556;DHT22;7879;48.660;9.116;2023-05-07T15:46:24;16.80;99.90
15556;DHT22;7879;48.660;9.116;2023-05-07T15:48:52;16.70;99.90
15556;DHT22;7879;48.660;9.116;2023-05-07T15:51:20;16.70;99.90
15556;DHT22;7879;48.660;9.116;2023-05-07T15:53:49;16.60;99.90
15556;DHT22;7879;48.660;9.116;2023-05-07T15:56:17;16.70;99.90
15556;DHT22;7879;48.660;9.116;2023-05-07T15:58:44;16.70;99.90
15556;DHT22;7879;48.660;9.116;2023-05-07T16:01:11;16.70;99.90
15556;DHT22;7879;48.660;9.116;2023-05-07T16:03:38;16.60;99.90
15556;DHT22;7879;48.660;9.116;2023-05-07T16:06:07;16.60;99.90
15556;DHT22;7879;48.660;9.116;2023-05-07T16:08:34;16.70;99.90